sensor_id;sensor_type;location;lat;lon;timestamp;pressure;altitude;pressure_sealevel;temperature;humidity
9839;BME280;4958;48.150;11.506;2024-01-30T00:02:30;96364.50;;;5.63;61.89
9839;BME280;4958;48.150;11.506;2024-01-30T00:07:41;96357.22;;;5.59;61.93
9839;BME280;4958;48.150;11.506;2024-01-30T00:13:11;96374.81;;;5.52;62.10
9839;BME280;4958;48.150;11.506;2024-01-30T00:15:56;96384.47;;;5.48;62.14
9839;BME280;4958;48.150;11.506;2024-01-30T00:18:23;96388.31;;;5.43;62.54
9839;BME280;4958;48.150;11.506;2024-01-30T00:21:17;96400.28;;;5.42;62.37
9839;BME280;4958;48.150;11.506;2024-01-30T00:23:52;96394.47;;;5.40;62.43
9839;BME280;4958;48.150;11.506;2024-01-30T00:26:35;96400.28;;;5.42;62.55
9839;BME280;4958;48.150;11.506;2024-01-30T00:29:09;96391.88;;;5.31;62.75
9839;BME280;4958;48.150;11.506;2024-01-30T00:31:50;96403.25;;;5.27;62.60
9839;BME280;4958;48.150;11.506;2024-01-30T00:34:20;96404.44;;;5.22;62.77
9839;BME280;4958;48.150;11.506;2024-01-30T00:37:04;96411.41;;;5.20;63.18
9839;BME280;4958;48.150;11.506;2024-01-30T00:43:48;96411.38;;;5.32;62.93
9839;BME280;4958;48.150;11.506;2024-01-30T00:46:40;96401.97;;;5.32;62.78
9839;BME280;4958;48.150;11.506;2024-01-30T00:49:42;96404.19;;;5.26;63.03
9839;BME280;4958;48.150;11.506;2024-01-30T00:52:38;96420.31;;;5.26;63.07
9839;BME280;4958;48.150;11.506;2024-01-30T00:58:49;96417.41;;;5.31;62.87
9839;BME280;4958;48.150;11.506;2024-01-30T01:01:41;96422.75;;;5.28;62.91
9839;BME280;4958;48.150;11.506;2024-01-30T01:07:49;96411.59;;;5.29;62.71
9839;BME280;4958;48.150;11.506;2024-01-30T01:10:25;96403.94;;;5.29;62.47
9839;BME280;4958;48.150;11.506;2024-01-30T01:19:27;96417.88;;;5.25;63.02
9839;BME280;4958;48.150;11.506;2024-01-30T01:22:11;96420.44;;;5.25;62.87
9839;BME280;4958;48.150;11.506;2024-01-30T01:24:55;96412.38;;;5.19;62.98
9839;BME280;4958;48.150;11.506;2024-01-30T01:27:41;96413.53;;;5.15;62.92
9839;BME280;4958;48.150;11.506;2024-01-30T01:30:25;96417.13;;;5.13;63.11
9839;BME280;4958;48.150;11.506;2024-01-30T01:32:59;96417.50;;;5.08;63.16
9839;BME280;4958;48.150;11.506;2024-01-30T01:38:34;96413.09;;;5.10;63.33
9839;BME280;4958;48.150;11.506;2024-01-30T01:41:07;96416.31;;;5.12;62.90
9839;BME280;4958;48.150;11.506;2024-01-30T01:43:52;96407.75;;;5.13;63.15
9839;BME280;4958;48.150;11.506;2024-01-30T01:46:30;96407.84;;;5.12;62.85
9839;BME280;4958;48.150;11.506;2024-01-30T01:49:11;96407.75;;;5.13;62.50
9839;BME280;4958;48.150;11.506;2024-01-30T01:52:11;96403.91;;;5.08;63.08
9839;BME280;4958;48.150;11.506;2024-01-30T01:54:55;96408.28;;;4.96;63.04
9839;BME280;4958;48.150;11.506;2024-01-30T01:57:36;96410.59;;;4.99;63.26
9839;BME280;4958;48.150;11.506;2024-01-30T02:00:17;96419.88;;;5.00;63.20
9839;BME280;4958;48.150;11.506;2024-01-30T02:03:15;96424.16;;;5.00;63.35
9839;BME280;4958;48.150;11.506;2024-01-30T02:05:51;96424.16;;;5.00;63.35
9839;BME280;4958;48.150;11.506;2024-01-30T02:08:56;96429.84;;;4.92;63.53
9839;BME280;4958;48.150;11.506;2024-01-30T02:11:23;96434.97;;;4.92;63.39
9839;BME280;4958;48.150;11.506;2024-01-30T02:13:52;96426.94;;;4.97;63.25
9839;BME280;4958;48.150;11.506;2024-01-30T02:16:21;96430.31;;;4.97;63.42
9839;BME280;4958;48.150;11.506;2024-01-30T02:18:48;96430.84;;;5.01;63.71
9839;BME280;4958;48.150;11.506;2024-01-30T02:21:17;96426.56;;;5.01;63.18
9839;BME280;4958;48.150;11.506;2024-01-30T02:23:46;96422.03;;;5.05;62.93
9839;BME280;4958;48.150;11.506;2024-01-30T02:26:35;96420.09;;;4.97;63.21
9839;BME280;4958;48.150;11.506;2024-01-30T02:29:10;96434.16;;;4.92;63.59
9839;BME280;4958;48.150;11.506;2024-01-30T02:31:58;96438.78;;;4.86;63.61
9839;BME280;4958;48.150;11.506;2024-01-30T02:34:45;96445.88;;;4.83;63.69
9839;BME280;4958;48.150;11.506;2024-01-30T02:37:13;96435.13;;;4.79;63.54
9839;BME280;4958;48.150;11.506;2024-01-30T02:40:14;96442.44;;;4.73;63.72
9839;BME280;4958;48.150;11.506;2024-01-30T02:42:46;96429.44;;;4.76;63.73
9839;BME280;4958;48.150;11.506;2024-01-30T02:45:18;96438.84;;;4.75;63.73
9839;BME280;4958;48.150;11.506;2024-01-30T02:47:48;96435.22;;;4.78;63.77
9839;BME280;4958;48.150;11.506;2024-01-30T02:50:18;96440.88;;;4.81;63.67
9839;BME280;4958;48.150;11.506;2024-01-30T02:52:59;96433.72;;;4.75;63.64
9839;BME280;4958;48.150;11.506;2024-01-30T02:55:31;96441.50;;;4.63;63.87
9839;BME280;4958;48.150;11.506;2024-01-30T02:57:57;96434.81;;;4.62;64.33
9839;BME280;4958;48.150;11.506;2024-01-30T03:00:25;96441.88;;;4.58;64.24
9839;BME280;4958;48.150;11.506;2024-01-30T03:02:52;96444.78;;;4.54;64.26
9839;BME280;4958;48.150;11.506;2024-01-30T03:05:18;96439.44;;;4.57;64.22
9839;BME280;4958;48.150;11.506;2024-01-30T03:07:44;96447.44;;;4.52;64.99
9839;BME280;4958;48.150;11.506;2024-01-30T03:10:12;96451.84;;;4.61;64.38
9839;BME280;4958;48.150;11.506;2024-01-30T03:12:41;96445.44;;;4.67;64.43
9839;BME280;4958;48.150;11.506;2024-01-30T03:15:08;96454.75;;;4.57;64.86
9839;BME280;4958;48.150;11.506;2024-01-30T03:17:35;96451.38;;;4.56;64.39
9839;BME280;4958;48.150;11.506;2024-01-30T03:20:03;96435.84;;;4.59;64.09
9839;BME280;4958;48.150;11.506;2024-01-30T03:22:31;96430.50;;;4.62;64.42
9839;BME280;4958;48.150;11.506;2024-01-30T03:25:01;96435.34;;;4.65;64.34
9839;BME280;4958;48.150;11.506;2024-01-30T03:27:28;96431.78;;;4.57;64.36
9839;BME280;4958;48.150;11.506;2024-01-30T03:29:57;96424.50;;;4.52;64.20
9839;BME280;4958;48.150;11.506;2024-01-30T03:32:23;96440.59;;;4.53;64.07
9839;BME280;4958;48.150;11.506;2024-01-30T03:34:50;96424.84;;;4.59;64.09
9839;BME280;4958;48.150;11.506;2024-01-30T03:37:16;96429.00;;;4.60;64.08
9839;BME280;4958;48.150;11.506;2024-01-30T03:39:42;96418.81;;;4.60;64.05
9839;BME280;4958;48.150;11.506;2024-01-30T03:42:09;96424.25;;;4.55;64.16
9839;BME280;4958;48.150;11.506;2024-01-30T03:44:37;96434.22;;;4.47;64.32
9839;BME280;4958;48.150;11.506;2024-01-30T03:47:03;96435.84;;;4.48;64.75
9839;BME280;4958;48.150;11.506;2024-01-30T03:49:30;96424.50;;;4.52;64.49
9839;BME280;4958;48.150;11.506;2024-01-30T03:51:56;96423.69;;;4.51;64.18
9839;BME280;4958;48.150;11.506;2024-01-30T03:54:22;96429.00;;;4.48;64.31
9839;BME280;4958;48.150;11.506;2024-01-30T03:56:49;96429.94;;;4.47;64.35
9839;BME280;4958;48.150;11.506;2024-01-30T03:59:15;96435.16;;;4.46;64.62
9839;BME280;4958;48.150;11.506;2024-01-30T04:01:46;96432.59;;;4.46;64.34
9839;BME280;4958;48.150;11.506;2024-01-30T04:04:12;96430.63;;;4.49;64.52
9839;BME280;4958;48.150;11.506;2024-01-30T04:06:39;96442.47;;;4.50;64.33
9839;BME280;4958;48.150;11.506;2024-01-30T04:09:05;96436.66;;;4.48;64.45
9839;BME280;4958;48.150;11.506;2024-01-30T04:11:31;96435.53;;;4.41;64.43
9839;BME280;4958;48.150;11.506;2024-01-30T04:13:58;96436.22;;;4.32;64.81
9839;BME280;4958;48.150;11.506;2024-01-30T04:16:26;96445.38;;;4.35;64.67
9839;BME280;4958;48.150;11.506;2024-01-30T04:18:54;96450.13;;;4.39;64.92
9839;BME280;4958;48.150;11.506;2024-01-30T04:21:20;96450.34;;;4.47;64.51
9839;BME280;4958;48.150;11.506;2024-01-30T04:23:49;96441.88;;;4.47;64.77
9839;BME280;4958;48.150;11.506;2024-01-30T04:26:15;96437.16;;;4.42;64.14
9839;BME280;4958;48.150;11.506;2024-01-30T04:28:44;96440.75;;;4.29;64.64
9839;BME280;4958;48.150;11.506;2024-01-30T04:31:11;96450.72;;;4.32;64.93
9839;BME280;4958;48.150;11.506;2024-01-30T04:33:38;96452.91;;;4.36;64.92
9839;BME280;4958;48.150;11.506;2024-01-30T04:36:08;96439.34;;;4.36;64.55
9839;BME280;4958;48.150;11.506;2024-01-30T04:38:36;96432.19;;;4.41;64.30
9839;BME280;4958;48.150;11.506;2024-01-30T04:41:03;96424.97;;;4.46;64.25
9839;BME280;4958;48.150;11.506;2024-01-30T04:43:29;96419.84;;;4.46;64.11
9839;BME280;4958;48.150;11.506;2024-01-30T04:45:59;96418.34;;;4.43;64.27
9839;BME280;4958;48.150;11.506;2024-01-30T04:48:25;96422.66;;;4.32;64.27
9839;BME280;4958;48.150;11.506;2024-01-30T04:51:01;96435.06;;;4.25;64.54
9839;BME280;4958;48.150;11.506;2024-01-30T04:53:31;96445.94;;;4.27;64.85
9839;BME280;4958;48.150;11.506;2024-01-30T04:55:59;96439.13;;;4.28;64.49
9839;BME280;4958;48.150;11.506;2024-01-30T04:58:25;96427.66;;;4.33;64.57
9839;BME280;4958;48.150;11.506;2024-01-30T05:00:55;96431.25;;;4.31;64.14
9839;BME280;4958;48.150;11.506;2024-01-30T05:03:22;96435.63;;;4.29;64.42
9839;BME280;4958;48.150;11.506;2024-01-30T05:05:49;96441.31;;;4.32;64.29
9839;BME280;4958;48.150;11.506;2024-01-30T05:08:16;96445.94;;;4.27;64.63
9839;BME280;4958;48.150;11.506;2024-01-30T05:10:45;96444.78;;;4.31;64.53
9839;BME280;4958;48.150;11.506;2024-01-30T05:13:14;96441.78;;;4.26;64.22
9839;BME280;4958;48.150;11.506;2024-01-30T05:15:41;96445.03;;;4.17;64.87
9839;BME280;4958;48.150;11.506;2024-01-30T05:18:08;96451.06;;;4.16;64.58
9839;BME280;4958;48.150;11.506;2024-01-30T05:20:34;96459.53;;;4.16;64.70
9839;BME280;4958;48.150;11.506;2024-01-30T05:23:03;96451.06;;;4.16;64.70
9839;BME280;4958;48.150;11.506;2024-01-30T05:25:30;96464.03;;;4.13;64.69
9839;BME280;4958;48.150;11.506;2024-01-30T05:28:01;96464.16;;;4.11;65.12
9839;BME280;4958;48.150;11.506;2024-01-30T05:30:28;96482.09;;;3.99;65.22
9839;BME280;4958;48.150;11.506;2024-01-30T05:32:55;96487.19;;;3.99;65.26
9839;BME280;4958;48.150;11.506;2024-01-30T05:35:21;96484.16;;;4.05;65.35
9839;BME280;4958;48.150;11.506;2024-01-30T05:37:48;96477.69;;;4.12;65.15
9839;BME280;4958;48.150;11.506;2024-01-30T05:40:15;96475.84;;;4.14;65.00
9839;BME280;4958;48.150;11.506;2024-01-30T05:42:42;96474.78;;;4.05;65.05
9839;BME280;4958;48.150;11.506;2024-01-30T05:45:10;96484.75;;;4.08;64.96
9839;BME280;4958;48.150;11.506;2024-01-30T05:47:39;96487.88;;;4.12;64.88
9839;BME280;4958;48.150;11.506;2024-01-30T05:50:09;96482.09;;;4.10;65.19
9839;BME280;4958;48.150;11.506;2024-01-30T05:52:37;96486.38;;;4.09;65.07
9839;BME280;4958;48.150;11.506;2024-01-30T05:55:06;96495.16;;;4.05;64.79
9839;BME280;4958;48.150;11.506;2024-01-30T05:57:32;96491.94;;;4.03;65.01
9839;BME280;4958;48.150;11.506;2024-01-30T05:59:59;96493.69;;;4.03;65.28
9839;BME280;4958;48.150;11.506;2024-01-30T06:02:26;96494.34;;;4.05;64.97
9839;BME280;4958;48.150;11.506;2024-01-30T06:04:54;96496.69;;;4.08;65.37
9839;BME280;4958;48.150;11.506;2024-01-30T06:07:20;96490.88;;;4.06;65.07
9839;BME280;4958;48.150;11.506;2024-01-30T06:09:52;96485.91;;;4.04;64.93
9839;BME280;4958;48.150;11.506;2024-01-30T06:12:20;96490.22;;;4.04;64.89
9839;BME280;4958;48.150;11.506;2024-01-30T06:14:47;96490.22;;;4.04;65.23
9839;BME280;4958;48.150;11.506;2024-01-30T06:17:13;96495.41;;;4.02;65.38
9839;BME280;4958;48.150;11.506;2024-01-30T06:19:47;96496.56;;;3.98;65.40
9839;BME280;4958;48.150;11.506;2024-01-30T06:22:24;96501.88;;;3.95;65.50
9839;BME280;4958;48.150;11.506;2024-01-30T06:24:51;96503.84;;;3.92;65.63
9839;BME280;4958;48.150;11.506;2024-01-30T06:27:17;96509.31;;;3.98;65.63
9839;BME280;4958;48.150;11.506;2024-01-30T06:29:43;96513.94;;;4.04;65.35
9839;BME280;4958;48.150;11.506;2024-01-30T06:32:10;96516.97;;;4.09;65.28
9839;BME280;4958;48.150;11.506;2024-01-30T06:34:38;96514.06;;;4.14;65.07
9839;BME280;4958;48.150;11.506;2024-01-30T06:37:06;96508.53;;;4.20;65.02
9839;BME280;4958;48.150;11.506;2024-01-30T06:39:33;96528.44;;;4.26;65.46
9839;BME280;4958;48.150;11.506;2024-01-30T06:41:59;96517.69;;;4.34;65.21
9839;BME280;4958;48.150;11.506;2024-01-30T06:44:25;96511.66;;;4.35;64.89
9839;BME280;4958;48.150;11.506;2024-01-30T06:46:52;96514.31;;;4.33;64.75
9839;BME280;4958;48.150;11.506;2024-01-30T06:49:18;96511.06;;;4.31;64.74
9839;BME280;4958;48.150;11.506;2024-01-30T06:51:47;96513.72;;;4.30;64.99
9839;BME280;4958;48.150;11.506;2024-01-30T06:54:14;96532.28;;;4.32;65.38
9839;BME280;4958;48.150;11.506;2024-01-30T06:56:41;96529.94;;;4.29;65.51
9839;BME280;4958;48.150;11.506;2024-01-30T06:59:07;96526.00;;;4.25;65.22
9839;BME280;4958;48.150;11.506;2024-01-30T07:01:37;96529.47;;;4.24;65.36
9839;BME280;4958;48.150;11.506;2024-01-30T07:04:03;96524.75;;;4.19;65.01
9839;BME280;4958;48.150;11.506;2024-01-30T07:06:30;96540.59;;;4.11;65.77
9839;BME280;4958;48.150;11.506;2024-01-30T07:08:56;96551.03;;;4.20;65.94
9839;BME280;4958;48.150;11.506;2024-01-30T07:11:24;96539.13;;;4.42;65.19
9839;BME280;4958;48.150;11.506;2024-01-30T07:13:51;96514.22;;;4.57;64.94
9839;BME280;4958;48.150;11.506;2024-01-30T07:16:17;96503.63;;;4.84;64.34
9839;BME280;4958;48.150;11.506;2024-01-30T07:18:44;96485.19;;;5.24;63.89
9839;BME280;4958;48.150;11.506;2024-01-30T07:21:11;96436.59;;;5.67;62.46
9839;BME280;4958;48.150;11.506;2024-01-30T07:23:38;96384.94;;;6.14;60.95
9839;BME280;4958;48.150;11.506;2024-01-30T07:26:04;96340.34;;;6.57;60.27
9839;BME280;4958;48.150;11.506;2024-01-30T07:28:35;96278.91;;;6.96;58.35
9839;BME280;4958;48.150;11.506;2024-01-30T07:31:02;96213.63;;;7.28;57.50
9839;BME280;4958;48.150;11.506;2024-01-30T07:33:30;96140.88;;;7.67;56.11
9839;BME280;4958;48.150;11.506;2024-01-30T07:35:56;96107.31;;;8.13;55.47
9839;BME280;4958;48.150;11.506;2024-01-30T07:38:24;96054.31;;;8.40;53.65
9839;BME280;4958;48.150;11.506;2024-01-30T07:40:50;95981.91;;;8.54;52.98
9839;BME280;4958;48.150;11.506;2024-01-30T07:43:17;95968.47;;;8.68;52.87
9839;BME280;4958;48.150;11.506;2024-01-30T07:45:49;95940.91;;;8.78;52.38
9839;BME280;4958;48.150;11.506;2024-01-30T07:48:20;95900.66;;;8.95;51.77
9839;BME280;4958;48.150;11.506;2024-01-30T07:50:59;95878.22;;;9.13;51.10
9839;BME280;4958;48.150;11.506;2024-01-30T07:53:34;95842.91;;;9.23;50.51
9839;BME280;4958;48.150;11.506;2024-01-30T07:56:05;95852.84;;;9.34;50.74
9839;BME280;4958;48.150;11.506;2024-01-30T07:58:37;95838.72;;;9.39;50.71
9839;BME280;4958;48.150;11.506;2024-01-30T08:01:19;95796.13;;;9.44;49.52
9839;BME280;4958;48.150;11.506;2024-01-30T08:03:50;95825.34;;;9.43;50.39
9839;BME280;4958;48.150;11.506;2024-01-30T08:06:18;95853.47;;;9.37;50.59
9839;BME280;4958;48.150;11.506;2024-01-30T08:08:55;95870.66;;;9.36;51.00
9839;BME280;4958;48.150;11.506;2024-01-30T08:11:22;95898.13;;;9.35;51.32
9839;BME280;4958;48.150;11.506;2024-01-30T08:16:44;95904.88;;;9.53;51.50
9839;BME280;4958;48.150;11.506;2024-01-30T08:19:20;95866.59;;;9.66;50.48
9839;BME280;4958;48.150;11.506;2024-01-30T08:21:53;95860.63;;;9.82;50.50
9839;BME280;4958;48.150;11.506;2024-01-30T08:24:20;95821.38;;;9.96;49.79
9839;BME280;4958;48.150;11.506;2024-01-30T08:26:47;95834.47;;;10.17;49.71
9839;BME280;4958;48.150;11.506;2024-01-30T08:29:14;95827.34;;;10.35;49.89
9839;BME280;4958;48.150;11.506;2024-01-30T08:31:41;95767.41;;;10.50;48.67
9839;BME280;4958;48.150;11.506;2024-01-30T08:34:08;95784.50;;;10.65;48.77
9839;BME280;4958;48.150;11.506;2024-01-30T08:36:35;95740.03;;;10.94;47.96
9839;BME280;4958;48.150;11.506;2024-01-30T08:39:02;95705.41;;;11.12;47.19
9839;BME280;4958;48.150;11.506;2024-01-30T08:41:30;95661.22;;;11.29;46.89
9839;BME280;4958;48.150;11.506;2024-01-30T08:43:57;95670.53;;;11.45;47.16
9839;BME280;4958;48.150;11.506;2024-01-30T08:46:23;95650.81;;;11.52;46.76
9839;BME280;4958;48.150;11.506;2024-01-30T08:48:49;95660.22;;;11.60;46.96
9839;BME280;4958;48.150;11.506;2024-01-30T08:51:17;95644.19;;;11.64;46.29
9839;BME280;4958;48.150;11.506;2024-01-30T08:53:53;95600.69;;;11.76;45.87
9839;BME280;4958;48.150;11.506;2024-01-30T08:56:21;95602.38;;;11.84;45.67
9839;BME280;4958;48.150;11.506;2024-01-30T08:58:48;95573.31;;;11.96;45.06
9839;BME280;4958;48.150;11.506;2024-01-30T09:01:16;95587.69;;;12.05;45.56
9839;BME280;4958;48.150;11.506;2024-01-30T09:03:43;95615.09;;;12.06;45.94
9839;BME280;4958;48.150;11.506;2024-01-30T09:06:11;95608.41;;;12.12;45.69
9839;BME280;4958;48.150;11.506;2024-01-30T09:08:40;95635.41;;;12.16;46.21
9839;BME280;4958;48.150;11.506;2024-01-30T09:11:08;95655.69;;;12.19;46.36
9839;BME280;4958;48.150;11.506;2024-01-30T09:13:35;95691.75;;;12.27;46.58
9839;BME280;4958;48.150;11.506;2024-01-30T09:16:01;95647.94;;;12.40;46.10
9839;BME280;4958;48.150;11.506;2024-01-30T09:18:28;95608.50;;;12.53;45.51
9839;BME280;4958;48.150;11.506;2024-01-30T09:20:54;95572.47;;;12.66;44.57
9839;BME280;4958;48.150;11.506;2024-01-30T09:23:21;95539.56;;;12.82;44.29
9839;BME280;4958;48.150;11.506;2024-01-30T09:25:48;95547.94;;;12.90;43.95
9839;BME280;4958;48.150;11.506;2024-01-30T09:28:15;95469.66;;;13.03;42.78
9839;BME280;4958;48.150;11.506;2024-01-30T09:30:42;95519.47;;;13.18;43.73
9839;BME280;4958;48.150;11.506;2024-01-30T09:33:11;95468.16;;;13.22;42.82
9839;BME280;4958;48.150;11.506;2024-01-30T09:35:40;95470.34;;;13.31;43.08
9839;BME280;4958;48.150;11.506;2024-01-30T09:38:07;95441.53;;;13.41;42.34
9839;BME280;4958;48.150;11.506;2024-01-30T09:40:33;95439.94;;;13.53;42.36
9839;BME280;4958;48.150;11.506;2024-01-30T09:43:01;95392.41;;;13.61;41.49
9839;BME280;4958;48.150;11.506;2024-01-30T09:45:27;95376.06;;;13.67;41.10
9839;BME280;4958;48.150;11.506;2024-01-30T09:47:54;95351.00;;;13.74;40.87
9839;BME280;4958;48.150;11.506;2024-01-30T09:50:23;95313.56;;;13.83;40.14
9839;BME280;4958;48.150;11.506;2024-01-30T09:52:51;95283.66;;;13.94;39.67
9839;BME280;4958;48.150;11.506;2024-01-30T09:55:20;95271.50;;;14.01;39.66
9839;BME280;4958;48.150;11.506;2024-01-30T10:00:24;95378.97;;;14.16;41.37
9839;BME280;4958;48.150;11.506;2024-01-30T10:03:10;95332.00;;;14.13;40.57
9839;BME280;4958;48.150;11.506;2024-01-30T10:09:46;95258.28;;;14.22;39.15
9839;BME280;4958;48.150;11.506;2024-01-30T10:09:50;95239.09;;;14.30;39.04
9839;BME280;4958;48.150;11.506;2024-01-30T10:19:13;95399.25;;;14.33;41.66
9839;BME280;4958;48.150;11.506;2024-01-30T10:21:40;95476.56;;;14.29;42.60
9839;BME280;4958;48.150;11.506;2024-01-30T10:24:07;95415.97;;;14.37;41.42
9839;BME280;4958;48.150;11.506;2024-01-30T10:26:37;95341.28;;;14.34;40.62
9839;BME280;4958;48.150;11.506;2024-01-30T10:29:04;95395.47;;;14.35;41.59
9839;BME280;4958;48.150;11.506;2024-01-30T10:31:30;95315.38;;;14.34;40.12
9839;BME280;4958;48.150;11.506;2024-01-30T10:33:57;95313.75;;;14.46;40.43
9839;BME280;4958;48.150;11.506;2024-01-30T10:36:28;95357.34;;;14.56;40.99
9839;BME280;4958;48.150;11.506;2024-01-30T10:38:55;95348.31;;;14.65;40.75
9839;BME280;4958;48.150;11.506;2024-01-30T10:41:26;95265.16;;;14.73;39.60
9839;BME280;4958;48.150;11.506;2024-01-30T10:43:58;95235.28;;;14.70;38.79
9839;BME280;4958;48.150;11.506;2024-01-30T10:46:31;95131.41;;;14.47;37.84
9839;BME280;4958;48.150;11.506;2024-01-30T10:48:59;95139.78;;;14.49;38.13
9839;BME280;4958;48.150;11.506;2024-01-30T10:51:27;95150.59;;;14.64;38.58
9839;BME280;4958;48.150;11.506;2024-01-30T10:53:55;95149.50;;;14.78;38.53
9839;BME280;4958;48.150;11.506;2024-01-30T10:56:22;95151.56;;;14.95;38.59
9839;BME280;4958;48.150;11.506;2024-01-30T10:58:50;95131.47;;;15.08;37.74
9839;BME280;4958;48.150;11.506;2024-01-30T11:01:17;95097.06;;;15.19;37.42
9839;BME280;4958;48.150;11.506;2024-01-30T11:03:45;95079.81;;;15.25;37.09
9839;BME280;4958;48.150;11.506;2024-01-30T11:06:29;95084.28;;;15.36;37.29
9839;BME280;4958;48.150;11.506;2024-01-30T11:09:01;95083.19;;;15.44;37.38
9839;BME280;4958;48.150;11.506;2024-01-30T11:11:49;94996.59;;;15.27;35.73
9839;BME280;4958;48.150;11.506;2024-01-30T11:14:16;95020.94;;;15.26;36.56
9839;BME280;4958;48.150;11.506;2024-01-30T11:16:43;95063.16;;;15.33;37.06
9839;BME280;4958;48.150;11.506;2024-01-30T11:19:12;95029.69;;;15.43;36.77
9839;BME280;4958;48.150;11.506;2024-01-30T11:21:42;95024.56;;;15.54;36.23
9839;BME280;4958;48.150;11.506;2024-01-30T11:24:09;95012.31;;;15.62;36.14
9839;BME280;4958;48.150;11.506;2024-01-30T11:26:35;94983.19;;;15.60;35.73
9839;BME280;4958;48.150;11.506;2024-01-30T11:29:03;95006.84;;;15.51;36.17
9839;BME280;4958;48.150;11.506;2024-01-30T11:31:29;95039.59;;;15.34;37.18
9839;BME280;4958;48.150;11.506;2024-01-30T11:33:56;95038.88;;;15.27;37.04
9839;BME280;4958;48.150;11.506;2024-01-30T11:36:26;95034.50;;;15.28;36.65
9839;BME280;4958;48.150;11.506;2024-01-30T11:38:54;95049.19;;;15.34;36.96
9839;BME280;4958;48.150;11.506;2024-01-30T11:41:23;95057.84;;;15.28;37.32
9839;BME280;4958;48.150;11.506;2024-01-30T11:43:53;95053.66;;;15.27;37.33
9839;BME280;4958;48.150;11.506;2024-01-30T11:46:19;95089.75;;;15.28;37.66
9839;BME280;4958;48.150;11.506;2024-01-30T11:48:49;95068.75;;;15.18;37.29
9839;BME280;4958;48.150;11.506;2024-01-30T11:51:16;95058.59;;;15.16;37.39
9839;BME280;4958;48.150;11.506;2024-01-30T11:53:49;95046.03;;;15.13;37.20
9839;BME280;4958;48.150;11.506;2024-01-30T11:56:18;95061.81;;;15.12;37.52
9839;BME280;4958;48.150;11.506;2024-01-30T11:58:44;95057.00;;;15.15;37.25
9839;BME280;4958;48.150;11.506;2024-01-30T12:01:11;95092.94;;;15.30;37.59
9839;BME280;4958;48.150;11.506;2024-01-30T12:03:37;94995.00;;;15.26;36.21
9839;BME280;4958;48.150;11.506;2024-01-30T12:06:04;95007.13;;;15.32;36.77
9839;BME280;4958;48.150;11.506;2024-01-30T12:08:31;95037.41;;;15.49;37.18
9839;BME280;4958;48.150;11.506;2024-01-30T12:10:58;95058.38;;;15.66;37.06
9839;BME280;4958;48.150;11.506;2024-01-30T12:13:28;95012.81;;;15.82;36.47
9839;BME280;4958;48.150;11.506;2024-01-30T12:15:57;94969.72;;;15.93;35.92
9839;BME280;4958;48.150;11.506;2024-01-30T12:18:24;94904.25;;;15.91;34.89
9839;BME280;4958;48.150;11.506;2024-01-30T12:20:58;94908.66;;;15.90;35.07
9839;BME280;4958;48.150;11.506;2024-01-30T12:23:25;94952.09;;;15.71;36.29
9839;BME280;4958;48.150;11.506;2024-01-30T12:25:52;94946.16;;;15.52;35.85
9839;BME280;4958;48.150;11.506;2024-01-30T12:28:19;94947.38;;;15.38;36.21
9839;BME280;4958;48.150;11.506;2024-01-30T12:30:47;94954.88;;;15.28;36.32
9839;BME280;4958;48.150;11.506;2024-01-30T12:33:16;94943.47;;;15.17;36.24
9839;BME280;4958;48.150;11.506;2024-01-30T12:35:45;94971.28;;;15.10;36.81
9839;BME280;4958;48.150;11.506;2024-01-30T12:38:12;94953.72;;;15.12;36.48
9839;BME280;4958;48.150;11.506;2024-01-30T12:40:39;94940.53;;;15.14;36.00
9839;BME280;4958;48.150;11.506;2024-01-30T12:43:06;94905.38;;;15.18;35.71
9839;BME280;4958;48.150;11.506;2024-01-30T12:45:33;94895.22;;;15.16;35.61
9839;BME280;4958;48.150;11.506;2024-01-30T12:48:03;94890.81;;;15.17;35.62
9839;BME280;4958;48.150;11.506;2024-01-30T12:50:30;94889.13;;;15.23;35.60
9839;BME280;4958;48.150;11.506;2024-01-30T12:52:56;94876.84;;;15.30;35.47
9839;BME280;4958;48.150;11.506;2024-01-30T12:55:23;94886.78;;;15.33;35.75
9839;BME280;4958;48.150;11.506;2024-01-30T12:57:52;94875.84;;;15.31;35.37
9839;BME280;4958;48.150;11.506;2024-01-30T13:00:18;94888.81;;;15.31;35.64
9839;BME280;4958;48.150;11.506;2024-01-30T13:02:48;94914.19;;;15.29;36.09
9839;BME280;4958;48.150;11.506;2024-01-30T13:05:16;94885.00;;;15.33;35.72
9839;BME280;4958;48.150;11.506;2024-01-30T13:07:42;94910.72;;;15.46;35.62
9839;BME280;4958;48.150;11.506;2024-01-30T13:10:09;94852.00;;;15.64;34.83
9839;BME280;4958;48.150;11.506;2024-01-30T13:12:35;94805.84;;;15.77;33.99
9839;BME280;4958;48.150;11.506;2024-01-30T13:15:05;94758.66;;;15.92;33.41
9839;BME280;4958;48.150;11.506;2024-01-30T13:17:33;94774.53;;;16.07;33.61
9839;BME280;4958;48.150;11.506;2024-01-30T13:19:59;94777.13;;;16.07;33.65
9839;BME280;4958;48.150;11.506;2024-01-30T13:22:27;94790.44;;;16.11;34.06
9839;BME280;4958;48.150;11.506;2024-01-30T13:24:53;94781.16;;;16.15;33.66
9839;BME280;4958;48.150;11.506;2024-01-30T13:27:20;94787.06;;;16.10;33.90
9839;BME280;4958;48.150;11.506;2024-01-30T13:29:47;94787.28;;;16.09;33.84
9839;BME280;4958;48.150;11.506;2024-01-30T13:32:13;94791.22;;;16.00;33.98
9839;BME280;4958;48.150;11.506;2024-01-30T13:34:39;94787.44;;;15.91;33.65
9839;BME280;4958;48.150;11.506;2024-01-30T13:37:06;94790.28;;;15.77;33.91
9839;BME280;4958;48.150;11.506;2024-01-30T13:39:34;94792.19;;;15.70;34.04
9839;BME280;4958;48.150;11.506;2024-01-30T13:42:04;94795.03;;;15.69;33.92
9839;BME280;4958;48.150;11.506;2024-01-30T13:44:34;94797.63;;;15.69;34.26
9839;BME280;4958;48.150;11.506;2024-01-30T13:47:01;94813.41;;;15.67;34.29
9839;BME280;4958;48.150;11.506;2024-01-30T13:49:30;94838.00;;;15.65;34.68
9839;BME280;4958;48.150;11.506;2024-01-30T13:51:56;94849.84;;;15.61;34.86
9839;BME280;4958;48.150;11.506;2024-01-30T13:54:23;94863.69;;;15.54;35.06
9839;BME280;4958;48.150;11.506;2024-01-30T13:56:51;94867.06;;;15.43;34.99
9839;BME280;4958;48.150;11.506;2024-01-30T13:59:18;94902.34;;;15.33;35.49
9839;BME280;4958;48.150;11.506;2024-01-30T14:01:48;94937.38;;;15.24;36.00
9839;BME280;4958;48.150;11.506;2024-01-30T14:04:15;94955.28;;;15.13;36.52
9839;BME280;4958;48.150;11.506;2024-01-30T14:06:41;94983.53;;;15.03;36.57
9839;BME280;4958;48.150;11.506;2024-01-30T14:09:08;95006.16;;;14.96;36.67
9839;BME280;4958;48.150;11.506;2024-01-30T14:11:38;95034.81;;;14.83;37.60
9839;BME280;4958;48.150;11.506;2024-01-30T14:14:06;95058.06;;;14.71;37.79